Time;durP1;ratioP1;P1;durP2;ratioP2;P2;SDS_P1;SDS_P2;PMS_P1;PMS_P2;Temp;Humidity;BMP_temperature;BMP_pressure;BME280_temperature;BME280_humidity;BME280_pressure;Samples;Min_cycle;Max_cycle;Signal;HPM_P1;HPM_P2
2022/05/29 00:01:21;;;;;;;;;3.00;2.50;;;;;;;;5098364;27;51370;-53
2022/05/29 00:04:07;;;;;;;;;4.25;3.75;;;;;;;;5102241;27;51013;-53
2022/05/29 00:07:00;;;;;;;;;3.75;2.75;;;;;;;;5099905;27;51338;-52
2022/05/29 00:10:00;;;;;;;;;5.00;3.00;;;;;;;;5101636;27;50974;-54
2022/05/29 00:12:45;;;;;;;;;3.25;2.00;;;;;;;;5101700;27;51449;-53
2022/05/29 00:15:39;;;;;;;;;4.00;2.25;;;;;;;;5101436;27;51068;-55
2022/05/29 00:18:31;;;;;;;;;7.00;4.00;;;;;;;;5083462;27;51169;-53
2022/05/29 00:21:18;;;;;;;;;5.75;3.50;;;;;;;;5101366;27;51444;-56
2022/05/29 00:24:03;;;;;;;;;4.00;2.50;;;;;;;;5101629;27;51074;-53
2022/05/29 00:26:47;;;;;;;;;7.75;3.25;;;;;;;;5101161;27;51283;-52
2022/05/29 00:29:35;;;;;;;;;5.25;4.50;;;;;;;;5096203;27;51141;-51
2022/05/29 00:32:19;;;;;;;;;4.25;4.25;;;;;;;;5100709;27;51567;-52
2022/05/29 00:35:06;;;;;;;;;3.50;2.00;;;;;;;;5099615;27;51140;-54
2022/05/29 00:37:51;;;;;;;;;2.00;0.00;;;;;;;;5099798;27;51511;-50
2022/05/29 00:40:59;;;;;;;;;5.25;4.00;;;;;;;;5094385;27;51156;-54
2022/05/29 00:43:47;;;;;;;;;4.00;3.75;;;;;;;;5101280;27;51053;-55
2022/05/29 00:46:32;;;;;;;;;4.50;2.00;;;;;;;;5100932;27;51494;-54
2022/05/29 00:49:18;;;;;;;;;2.50;0.00;;;;;;;;5101199;27;50950;-51
2022/05/29 00:52:16;;;;;;;;;4.25;3.00;;;;;;;;5100649;27;51094;-55
2022/05/29 00:55:05;;;;;;;;;5.25;3.00;;;;;;;;5101022;27;51114;-55
2022/05/29 00:57:58;;;;;;;;;5.00;3.00;;;;;;;;5099430;27;51548;-55
2022/05/29 01:00:48;;;;;;;;;9.00;3.00;;;;;;;;5060151;28;51059;-54
2022/05/29 01:03:33;;;;;;;;;4.00;2.25;;;;;;;;5057566;28;51493;-54
2022/05/29 01:06:20;;;;;;;;;1.50;1.25;;;;;;;;5059755;28;51343;-50
2022/05/29 01:09:10;;;;;;;;;3.25;2.00;;;;;;;;5060063;28;51066;-53
2022/05/29 01:12:03;;;;;;;;;7.50;2.75;;;;;;;;5055677;28;51556;-55
2022/05/29 01:15:07;;;;;;;;;3.00;1.75;;;;;;;;5059606;28;51480;-54
2022/05/29 01:18:12;;;;;;;;;2.75;1.25;;;;;;;;5055127;28;51158;-51
2022/05/29 01:21:02;;;;;;;;;6.50;3.75;;;;;;;;5059728;28;51063;-52
2022/05/29 01:24:06;;;;;;;;;5.75;1.25;;;;;;;;5058401;28;51540;-52
2022/05/29 01:26:58;;;;;;;;;5.00;3.00;;;;;;;;5059468;28;51180;-54
2022/05/29 01:30:05;;;;;;;;;5.50;2.75;;;;;;;;5058664;28;51098;-52
2022/05/29 01:33:08;;;;;;;;;3.25;2.50;;;;;;;;5072606;27;51093;-56
2022/05/29 01:36:12;;;;;;;;;2.50;2.50;;;;;;;;5056056;28;51074;-53
2022/05/29 01:39:00;;;;;;;;;3.50;2.25;;;;;;;;5058392;28;51174;-51
2022/05/29 01:41:53;;;;;;;;;7.50;3.75;;;;;;;;5057787;28;51040;-53
2022/05/29 01:48:20;;;;;;;;;1.00;1.00;;;;;;;;4953385;28;51283;-52
2022/05/29 01:51:18;;;;;;;;;4.50;2.50;;;;;;;;4996742;28;51493;-54
2022/05/29 01:54:13;;;;;;;;;9.75;2.50;;;;;;;;4996728;28;51199;-55
2022/05/29 01:57:06;;;;;;;;;4.00;3.50;;;;;;;;4997055;28;51081;-52
2022/05/29 02:00:01;;;;;;;;;3.50;3.50;;;;;;;;4982671;28;52157;-55
2022/05/29 02:02:49;;;;;;;;;1.25;1.25;;;;;;;;4997510;28;51154;-51
2022/05/29 02:05:39;;;;;;;;;7.00;2.75;;;;;;;;4996773;28;51186;-52
2022/05/29 02:08:47;;;;;;;;;1.50;1.00;;;;;;;;5010719;28;51401;-55
2022/05/29 02:11:31;;;;;;;;;4.25;2.50;;;;;;;;4996728;28;51177;-54
2022/05/29 02:14:22;;;;;;;;;3.50;2.00;;;;;;;;5016909;28;51156;-55
2022/05/29 02:17:14;;;;;;;;;5.25;2.00;;;;;;;;5016244;28;51460;-54
2022/05/29 02:20:03;;;;;;;;;3.00;3.00;;;;;;;;5016446;28;51246;-55
2022/05/29 02:22:48;;;;;;;;;4.50;1.75;;;;;;;;5016799;28;51397;-55
2022/05/29 02:25:36;;;;;;;;;1.75;1.75;;;;;;;;5028973;28;51075;-53
2022/05/29 02:28:27;;;;;;;;;2.50;2.50;;;;;;;;5038788;28;51257;-50
2022/05/29 02:31:25;;;;;;;;;5.00;2.75;;;;;;;;5038442;28;51172;-50
2022/05/29 02:34:30;;;;;;;;;5.75;2.25;;;;;;;;5038582;28;51068;-52
2022/05/29 02:37:34;;;;;;;;;3.75;2.25;;;;;;;;5038122;28;51135;-48
2022/05/29 02:40:36;;;;;;;;;1.75;1.50;;;;;;;;5029881;28;51154;-51
2022/05/29 02:43:40;;;;;;;;;3.75;1.00;;;;;;;;5053845;28;51329;-53
2022/05/29 02:46:25;;;;;;;;;2.75;2.50;;;;;;;;5059022;28;51232;-48
2022/05/29 02:49:13;;;;;;;;;3.25;2.50;;;;;;;;5061257;28;51074;-50
2022/05/29 02:52:17;;;;;;;;;7.50;4.00;;;;;;;;5062074;28;51080;-54
2022/05/29 02:55:03;;;;;;;;;2.75;2.00;;;;;;;;5059977;28;51159;-49
2022/05/29 02:58:07;;;;;;;;;2.75;2.50;;;;;;;;5058527;28;51109;-52
2022/05/29 03:01:25;;;;;;;;;3.25;3.25;;;;;;;;5077654;27;51350;-53
2022/05/29 03:04:10;;;;;;;;;5.50;3.50;;;;;;;;4980073;28;51173;-52
2022/05/29 03:07:18;;;;;;;;;3.75;3.75;;;;;;;;5025782;27;51158;-52
2022/05/29 03:10:22;;;;;;;;;2.50;1.00;;;;;;;;5098352;27;51018;-51
2022/05/29 03:13:18;;;;;;;;;3.00;3.00;;;;;;;;5088078;27;51254;-52
2022/05/29 03:16:29;;;;;;;;;4.00;3.00;;;;;;;;5083159;27;51115;-52
2022/05/29 03:19:32;;;;;;;;;4.50;3.00;;;;;;;;5099351;27;51065;-50
2022/05/29 03:22:35;;;;;;;;;5.25;3.00;;;;;;;;5082392;27;51151;-51
2022/05/29 03:25:26;;;;;;;;;2.50;2.00;;;;;;;;5082078;27;51155;-52
2022/05/29 03:28:27;;;;;;;;;5.00;2.50;;;;;;;;5082254;27;51104;-50
2022/05/29 03:31:18;;;;;;;;;3.25;2.00;;;;;;;;5099066;27;51105;-55
2022/05/29 03:34:07;;;;;;;;;2.50;1.50;;;;;;;;5103010;27;50997;-51
2022/05/29 03:36:55;;;;;;;;;0.00;0.00;;;;;;;;5100347;27;51093;-52
2022/05/29 03:39:40;;;;;;;;;3.50;3.50;;;;;;;;5081799;27;51168;-51
2022/05/29 03:42:24;;;;;;;;;2.50;2.00;;;;;;;;5083224;27;51595;-50
2022/05/29 03:45:12;;;;;;;;;4.50;1.50;;;;;;;;5081709;27;51122;-56
2022/05/29 03:47:57;;;;;;;;;2.00;2.00;;;;;;;;5081916;27;51215;-54
2022/05/29 03:50:43;;;;;;;;;2.50;2.25;;;;;;;;5081412;27;51416;-52
2022/05/29 03:53:29;;;;;;;;;2.00;2.00;;;;;;;;5081615;27;51441;-52
2022/05/29 03:56:19;;;;;;;;;2.75;1.50;;;;;;;;5081473;27;51147;-53
2022/05/29 03:59:08;;;;;;;;;5.75;2.75;;;;;;;;5081962;27;51680;-55
2022/05/29 04:02:04;;;;;;;;;3.75;2.25;;;;;;;;5101556;27;51208;-56
2022/05/29 04:04:49;;;;;;;;;1.75;1.75;;;;;;;;5101794;27;51159;-53
2022/05/29 04:13:44;;;;;;;;;6.25;5.00;;;;;;;;5101487;27;51184;-53
2022/05/29 04:16:29;;;;;;;;;6.25;4.00;;;;;;;;5101191;27;51565;-53
2022/05/29 04:19:14;;;;;;;;;5.00;2.00;;;;;;;;5085007;27;51085;-53
2022/05/29 04:22:19;;;;;;;;;3.50;2.00;;;;;;;;5101221;27;51496;-57
2022/05/29 04:25:05;;;;;;;;;5.25;3.00;;;;;;;;5100392;27;51078;-55
2022/05/29 04:27:50;;;;;;;;;3.75;3.00;;;;;;;;5101139;27;51540;-54
2022/05/29 04:30:50;;;;;;;;;3.25;3.00;;;;;;;;5101193;27;51142;-52
2022/05/29 04:33:34;;;;;;;;;5.25;3.00;;;;;;;;5101157;27;51211;-54
2022/05/29 04:36:19;;;;;;;;;2.25;2.00;;;;;;;;5101089;27;51058;-55
2022/05/29 04:39:15;;;;;;;;;4.50;2.50;;;;;;;;5101329;27;51156;-55
2022/05/29 04:42:00;;;;;;;;;2.25;2.00;;;;;;;;5100888;27;51109;-53
2022/05/29 04:44:47;;;;;;;;;5.00;4.25;;;;;;;;5100777;27;51195;-55
2022/05/29 04:47:42;;;;;;;;;5.75;4.25;;;;;;;;5100790;27;51054;-48
2022/05/29 04:50:27;;;;;;;;;3.50;2.25;;;;;;;;5101395;27;51085;-51
2022/05/29 04:53:12;;;;;;;;;5.00;2.00;;;;;;;;5100642;27;51054;-52
2022/05/29 04:56:00;;;;;;;;;2.75;0.00;;;;;;;;5101038;27;51114;-53
2022/05/29 04:59:05;;;;;;;;;4.25;4.00;;;;;;;;5100914;27;51371;-53
2022/05/29 05:01:50;;;;;;;;;4.75;3.75;;;;;;;;5100509;27;51140;-51
2022/05/29 05:04:38;;;;;;;;;5.00;3.00;;;;;;;;5100537;27;51008;-54
2022/05/29 05:07:22;;;;;;;;;4.00;4.00;;;;;;;;5100425;27;51452;-47
2022/05/29 05:10:12;;;;;;;;;5.50;3.00;;;;;;;;5100431;27;51042;-52
2022/05/29 05:12:56;;;;;;;;;4.00;2.75;;;;;;;;5081404;27;51098;-50
2022/05/29 05:15:42;;;;;;;;;5.25;3.75;;;;;;;;5100490;27;51113;-51
2022/05/29 05:18:27;;;;;;;;;2.25;2.25;;;;;;;;5100339;27;51411;-53
2022/05/29 05:21:18;;;;;;;;;3.75;3.75;;;;;;;;5100300;27;51098;-46
2022/05/29 05:24:04;;;;;;;;;4.00;2.50;;;;;;;;5100237;27;51344;-50
2022/05/29 05:26:51;;;;;;;;;4.00;4.00;;;;;;;;5100204;27;51083;-50
2022/05/29 05:29:38;;;;;;;;;5.50;2.50;;;;;;;;5084999;27;51149;-50
2022/05/29 05:32:27;;;;;;;;;4.00;2.50;;;;;;;;5100286;27;51057;-52
2022/05/29 05:35:11;;;;;;;;;4.50;3.00;;;;;;;;5100154;27;51464;-50
2022/05/29 05:37:57;;;;;;;;;6.00;5.00;;;;;;;;5100460;27;51459;-51
2022/05/29 05:40:44;;;;;;;;;3.50;3.50;;;;;;;;5100644;27;51101;-50
2022/05/29 05:43:31;;;;;;;;;4.00;3.00;;;;;;;;5100005;27;51536;-53
2022/05/29 05:46:17;;;;;;;;;5.25;3.00;;;;;;;;5099979;27;51187;-51
2022/05/29 05:49:01;;;;;;;;;4.50;2.25;;;;;;;;5100553;27;51243;-51
2022/05/29 05:51:56;;;;;;;;;7.00;1.25;;;;;;;;5099884;27;51117;-48
2022/05/29 05:54:41;;;;;;;;;6.25;4.00;;;;;;;;5099796;27;51235;-51
2022/05/29 05:57:26;;;;;;;;;3.50;2.75;;;;;;;;5099887;27;51146;-50
2022/05/29 06:00:23;;;;;;;;;7.50;4.50;;;;;;;;5099684;27;51382;-50
2022/05/29 06:03:11;;;;;;;;;4.00;2.25;;;;;;;;5097064;27;51088;-53
2022/05/29 06:06:05;;;;;;;;;3.50;2.25;;;;;;;;5100214;27;51053;-49
2022/05/29 06:08:52;;;;;;;;;4.00;3.50;;;;;;;;5099481;27;51424;-51
2022/05/29 06:11:39;;;;;;;;;2.75;1.50;;;;;;;;5084515;27;51282;-51
2022/05/29 06:14:25;;;;;;;;;3.75;2.00;;;;;;;;5099959;27;51394;-51
2022/05/29 06:17:10;;;;;;;;;4.75;4.00;;;;;;;;5101706;27;51144;-53
2022/05/29 06:19:55;;;;;;;;;6.75;2.75;;;;;;;;5104309;27;51057;-53
2022/05/29 06:22:41;;;;;;;;;4.00;1.50;;;;;;;;5098899;27;51157;-53
2022/05/29 06:25:26;;;;;;;;;1.75;1.00;;;;;;;;5065920;27;51180;-53
2022/05/29 06:28:11;;;;;;;;;0.75;0.75;;;;;;;;5081169;27;51075;-52
2022/05/29 06:30:56;;;;;;;;;1.50;1.50;;;;;;;;5102055;27;51140;-51
2022/05/29 06:33:40;;;;;;;;;4.00;2.00;;;;;;;;5071414;27;51109;-45
2022/05/29 06:36:36;;;;;;;;;5.75;2.75;;;;;;;;5082687;27;51178;-41
2022/05/29 06:39:22;;;;;;;;;2.00;0.50;;;;;;;;5100527;27;51296;-44
2022/05/29 06:42:11;;;;;;;;;8.00;2.75;;;;;;;;5087707;27;51097;-45
2022/05/29 06:44:55;;;;;;;;;4.00;2.25;;;;;;;;5083257;27;51024;-48
2022/05/29 06:47:41;;;;;;;;;2.00;2.00;;;;;;;;5089538;27;51060;-46
2022/05/29 06:50:36;;;;;;;;;3.25;1.50;;;;;;;;5088806;27;51321;-47
2022/05/29 06:53:22;;;;;;;;;3.00;3.00;;;;;;;;5081906;27;51118;-50
2022/05/29 06:56:10;;;;;;;;;6.75;1.00;;;;;;;;5082413;27;51059;-44
2022/05/29 06:58:55;;;;;;;;;1.00;0.25;;;;;;;;5081731;27;51547;-50
2022/05/29 07:08:06;;;;;;;;;2.75;2.75;;;;;;;;5081818;27;51111;-41
2022/05/29 07:11:01;;;;;;;;;3.00;2.00;;;;;;;;5082721;27;51094;-45
2022/05/29 07:13:45;;;;;;;;;3.25;2.50;;;;;;;;5081606;27;51180;-48
2022/05/29 07:16:35;;;;;;;;;4.50;1.50;;;;;;;;5081808;27;51410;-47
2022/05/29 07:19:29;;;;;;;;;3.00;1.50;;;;;;;;5081350;27;51182;-47
2022/05/29 07:22:14;;;;;;;;;2.50;1.00;;;;;;;;5082035;27;51145;-45
2022/05/29 07:25:06;;;;;;;;;1.75;0.75;;;;;;;;5081188;27;51526;-47
2022/05/29 07:27:55;;;;;;;;;4.50;2.50;;;;;;;;5099584;27;51115;-48
2022/05/29 07:30:41;;;;;;;;;2.25;1.25;;;;;;;;5102016;27;51378;-47
2022/05/29 07:33:27;;;;;;;;;5.25;1.00;;;;;;;;5101866;27;51049;-44
2022/05/29 07:36:21;;;;;;;;;4.00;0.75;;;;;;;;5102000;27;51065;-50
2022/05/29 07:39:06;;;;;;;;;1.25;1.25;;;;;;;;5101970;27;51069;-49
2022/05/29 07:44:53;;;;;;;;;0.00;0.00;;;;;;;;5094752;27;52211;-46
2022/05/29 07:47:43;;;;;;;;;2.25;0.25;;;;;;;;5098382;27;51277;-49
2022/05/29 07:50:40;;;;;;;;;0.75;0.75;;;;;;;;5102004;27;51190;-48
2022/05/29 07:53:24;;;;;;;;;1.50;0.50;;;;;;;;5088399;27;51166;-49
2022/05/29 07:56:10;;;;;;;;;1.00;1.00;;;;;;;;5081533;27;51058;-47
2022/05/29 07:59:08;;;;;;;;;0.00;0.00;;;;;;;;5080741;27;51221;-47
2022/05/29 08:01:54;;;;;;;;;2.00;1.00;;;;;;;;5099823;27;51479;-48
2022/05/29 08:04:40;;;;;;;;;0.00;0.00;;;;;;;;5102089;27;51051;-53
2022/05/29 08:07:25;;;;;;;;;3.00;0.00;;;;;;;;5102205;27;51417;-47
2022/05/29 08:10:13;;;;;;;;;1.00;0.00;;;;;;;;5099791;27;51517;-49
2022/05/29 08:13:00;;;;;;;;;1.50;0.75;;;;;;;;5102055;27;51061;-50
2022/05/29 08:15:44;;;;;;;;;2.00;0.25;;;;;;;;5087946;27;51160;-50
2022/05/29 08:18:29;;;;;;;;;1.25;0.00;;;;;;;;5086080;27;51167;-49
2022/05/29 08:21:14;;;;;;;;;3.00;1.25;;;;;;;;5089151;27;51044;-48
2022/05/29 08:33:34;;;;;;;;;1.00;1.00;;;;;;;;5101217;27;51131;-49
2022/05/29 08:36:22;;;;;;;;;2.50;1.00;;;;;;;;5099122;27;50978;-49
2022/05/29 08:39:06;;;;;;;;;3.50;2.00;;;;;;;;5099488;27;51038;-53
2022/05/29 08:41:52;;;;;;;;;0.25;0.25;;;;;;;;5082803;27;51164;-42
2022/05/29 08:44:50;;;;;;;;;2.25;0.50;;;;;;;;5080728;27;51176;-47
2022/05/29 08:47:45;;;;;;;;;1.75;0.50;;;;;;;;5065613;27;51136;-45
2022/05/29 08:50:51;;;;;;;;;3.75;0.50;;;;;;;;5087584;27;51116;-46
2022/05/29 08:53:38;;;;;;;;;0.50;0.25;;;;;;;;5080278;27;51410;-47
2022/05/29 08:56:57;;;;;;;;;3.50;1.00;;;;;;;;5085755;27;51596;-48
2022/05/29 09:00:06;;;;;;;;;1.25;1.25;;;;;;;;5041619;27;52577;-44
2022/05/29 09:02:52;;;;;;;;;0.25;0.00;;;;;;;;5096763;27;51314;-47
2022/05/29 09:05:43;;;;;;;;;1.00;1.00;;;;;;;;5079602;27;51128;-50
2022/05/29 09:08:43;;;;;;;;;1.00;1.00;;;;;;;;5082048;27;51408;-46
2022/05/29 09:11:41;;;;;;;;;2.00;1.00;;;;;;;;5078833;27;51207;-43
2022/05/29 09:14:35;;;;;;;;;1.00;1.00;;;;;;;;5079674;27;51371;-43
2022/05/29 09:17:30;;;;;;;;;0.25;0.25;;;;;;;;5066432;27;51043;-50
2022/05/29 09:20:29;;;;;;;;;2.75;1.00;;;;;;;;5079729;27;51151;-46
2022/05/29 09:23:18;;;;;;;;;1.00;1.00;;;;;;;;5092894;27;51303;-43
2022/05/29 09:26:14;;;;;;;;;2.00;0.75;;;;;;;;5075138;27;51071;-49
2022/05/29 09:29:00;;;;;;;;;6.00;2.25;;;;;;;;5093799;27;51199;-46
2022/05/29 09:31:45;;;;;;;;;0.50;0.50;;;;;;;;5090419;27;51017;-44
2022/05/29 09:34:29;;;;;;;;;1.75;0.00;;;;;;;;5083301;27;51507;-45
2022/05/29 09:37:26;;;;;;;;;2.00;0.00;;;;;;;;5093054;27;51288;-45
2022/05/29 09:40:14;;;;;;;;;1.50;0.00;;;;;;;;5085487;27;51379;-45
2022/05/29 09:43:13;;;;;;;;;5.25;0.50;;;;;;;;5095581;27;51116;-44
2022/05/29 09:46:17;;;;;;;;;3.50;1.00;;;;;;;;5091908;27;52054;-50
2022/05/29 09:52:28;;;;;;;;;5.00;4.00;;;;;;;;5092892;27;51738;-50
2022/05/29 09:55:12;;;;;;;;;6.25;4.75;;;;;;;;5091607;27;51083;-48
2022/05/29 09:58:02;;;;;;;;;4.00;1.00;;;;;;;;5091657;27;51145;-51
2022/05/29 10:04:37;;;;;;;;;4.00;1.75;;;;;;;;4934186;28;51197;-52
2022/05/29 10:07:45;;;;;;;;;3.00;1.00;;;;;;;;4925779;28;51436;-51
2022/05/29 10:10:52;;;;;;;;;1.00;1.00;;;;;;;;4921478;28;51237;-49
2022/05/29 10:13:38;;;;;;;;;3.00;0.25;;;;;;;;4929147;28;51537;-45
2022/05/29 10:16:38;;;;;;;;;3.00;2.00;;;;;;;;5007492;28;51180;-46
2022/05/29 10:19:47;;;;;;;;;3.00;1.75;;;;;;;;5005200;28;51468;-49
2022/05/29 10:22:41;;;;;;;;;2.00;0.25;;;;;;;;4999517;28;51203;-45
2022/05/29 10:25:34;;;;;;;;;2.00;1.25;;;;;;;;5008059;28;51176;-48
2022/05/29 10:28:22;;;;;;;;;5.00;3.00;;;;;;;;5010939;28;51081;-46
2022/05/29 10:31:12;;;;;;;;;4.50;3.00;;;;;;;;4990223;28;51234;-44
2022/05/29 10:34:12;;;;;;;;;7.00;4.00;;;;;;;;5004317;28;51272;-48
2022/05/29 10:37:08;;;;;;;;;4.00;4.00;;;;;;;;5008260;28;51104;-47
2022/05/29 10:40:10;;;;;;;;;2.00;2.00;;;;;;;;5007468;28;51385;-43
2022/05/29 10:42:59;;;;;;;;;2.50;1.50;;;;;;;;5093379;27;51167;-43
2022/05/29 10:46:06;;;;;;;;;9.25;5.25;;;;;;;;5081887;27;51342;-46
2022/05/29 10:49:06;;;;;;;;;5.00;5.00;;;;;;;;5081521;27;51133;-45
2022/05/29 10:51:54;;;;;;;;;6.00;6.00;;;;;;;;5099420;27;51014;-48
2022/05/29 10:54:41;;;;;;;;;4.25;4.25;;;;;;;;5099134;27;51058;-50
2022/05/29 10:57:25;;;;;;;;;6.00;4.25;;;;;;;;5099252;27;51084;-47
2022/05/29 11:00:28;;;;;;;;;5.50;3.25;;;;;;;;5098765;27;51078;-47
2022/05/29 11:03:34;;;;;;;;;7.50;5.25;;;;;;;;5101542;27;51075;-50
2022/05/29 11:06:22;;;;;;;;;4.25;3.50;;;;;;;;5102849;27;51582;-49
2022/05/29 11:09:06;;;;;;;;;2.25;2.25;;;;;;;;5102400;27;51219;-48
2022/05/29 11:11:55;;;;;;;;;7.25;2.75;;;;;;;;5102816;27;51112;-43
2022/05/29 11:14:48;;;;;;;;;4.75;4.75;;;;;;;;5102551;27;51120;-45
2022/05/29 11:17:46;;;;;;;;;4.25;3.00;;;;;;;;5103357;27;51057;-46
2022/05/29 11:20:49;;;;;;;;;4.75;4.75;;;;;;;;5083970;27;51396;-46
2022/05/29 11:23:33;;;;;;;;;6.00;2.75;;;;;;;;5082388;27;51113;-45
2022/05/29 11:26:42;;;;;;;;;5.25;4.00;;;;;;;;5082004;27;51125;-47
2022/05/29 11:29:53;;;;;;;;;2.00;2.00;;;;;;;;5082707;27;51291;-47
2022/05/29 11:32:56;;;;;;;;;3.75;3.25;;;;;;;;5081969;27;51523;-48
2022/05/29 11:36:01;;;;;;;;;3.50;2.75;;;;;;;;5073465;27;51169;-48
2022/05/29 11:39:05;;;;;;;;;3.75;3.00;;;;;;;;5085986;27;51246;-49
2022/05/29 11:41:50;;;;;;;;;4.25;3.50;;;;;;;;5081969;27;51055;-46
2022/05/29 11:44:44;;;;;;;;;3.75;3.25;;;;;;;;5082260;27;52309;-46
2022/05/29 11:51:18;;;;;;;;;4.00;3.25;;;;;;;;5102535;27;51067;-47
2022/05/29 11:54:05;;;;;;;;;6.25;4.00;;;;;;;;5093890;27;51103;-47
2022/05/29 11:56:55;;;;;;;;;4.25;3.00;;;;;;;;5093170;27;51421;-45
2022/05/29 11:59:57;;;;;;;;;5.25;3.00;;;;;;;;5096165;27;51482;-46
2022/05/29 12:02:54;;;;;;;;;4.00;3.25;;;;;;;;5096082;27;51192;-46
2022/05/29 12:05:47;;;;;;;;;7.50;3.75;;;;;;;;5095220;27;51478;-48
2022/05/29 12:08:45;;;;;;;;;3.75;3.00;;;;;;;;5092320;27;51085;-46
2022/05/29 12:11:35;;;;;;;;;5.50;3.50;;;;;;;;5084406;27;51076;-46
2022/05/29 12:14:25;;;;;;;;;5.75;3.50;;;;;;;;5090136;27;51212;-48
2022/05/29 12:17:16;;;;;;;;;6.00;4.00;;;;;;;;5068776;27;51209;-46
2022/05/29 12:20:01;;;;;;;;;5.75;0.75;;;;;;;;5091356;27;51410;-48
2022/05/29 12:22:49;;;;;;;;;2.00;1.50;;;;;;;;5091583;27;51123;-47
2022/05/29 12:25:40;;;;;;;;;6.00;4.00;;;;;;;;5091586;27;51460;-47
2022/05/29 12:28:43;;;;;;;;;4.25;3.00;;;;;;;;5090587;27;51115;-47
2022/05/29 12:31:37;;;;;;;;;4.00;3.00;;;;;;;;5086958;27;51399;-46
2022/05/29 12:34:32;;;;;;;;;4.25;3.25;;;;;;;;5084966;27;51214;-44
2022/05/29 12:37:35;;;;;;;;;4.00;4.00;;;;;;;;5083802;27;51498;-47
2022/05/29 12:40:24;;;;;;;;;3.75;2.25;;;;;;;;5084364;27;51463;-43
2022/05/29 12:43:27;;;;;;;;;3.25;2.50;;;;;;;;5090494;27;51169;-45
2022/05/29 12:46:33;;;;;;;;;3.75;2.75;;;;;;;;5089120;27;51086;-47
2022/05/29 12:49:50;;;;;;;;;2.00;2.00;;;;;;;;5088504;27;51288;-46
2022/05/29 12:52:37;;;;;;;;;3.00;3.00;;;;;;;;5033440;28;52590;-43
2022/05/29 12:55:24;;;;;;;;;6.75;3.25;;;;;;;;5032143;28;51186;-43
2022/05/29 12:58:37;;;;;;;;;4.25;4.25;;;;;;;;5035109;28;51265;-45
2022/05/29 13:01:42;;;;;;;;;6.00;3.00;;;;;;;;5032741;28;51199;-42
2022/05/29 13:04:45;;;;;;;;;3.00;2.75;;;;;;;;5036283;28;51188;-45
2022/05/29 13:07:52;;;;;;;;;3.50;3.50;;;;;;;;5038167;27;51738;-43
2022/05/29 13:10:39;;;;;;;;;4.00;3.00;;;;;;;;5084328;27;51643;-42
2022/05/29 13:13:32;;;;;;;;;4.25;3.00;;;;;;;;5091515;27;51261;-44
2022/05/29 13:16:39;;;;;;;;;2.75;2.00;;;;;;;;5090813;27;51205;-43
2022/05/29 13:19:44;;;;;;;;;5.50;2.00;;;;;;;;5097758;27;51435;-44
2022/05/29 13:22:50;;;;;;;;;5.25;2.00;;;;;;;;5100604;27;51466;-45
2022/05/29 13:25:37;;;;;;;;;5.25;2.75;;;;;;;;5095994;27;51159;-42
2022/05/29 13:28:43;;;;;;;;;5.75;3.00;;;;;;;;5081657;27;51153;-44
2022/05/29 13:31:31;;;;;;;;;5.25;4.00;;;;;;;;5082894;27;51166;-43
2022/05/29 13:34:31;;;;;;;;;5.25;3.75;;;;;;;;5085711;27;51133;-41
2022/05/29 13:37:30;;;;;;;;;4.25;3.00;;;;;;;;5100497;27;51434;-47
2022/05/29 13:40:20;;;;;;;;;2.75;2.00;;;;;;;;5093685;27;51247;-42
2022/05/29 13:43:25;;;;;;;;;4.75;2.75;;;;;;;;5094241;27;51021;-44
2022/05/29 13:46:27;;;;;;;;;2.75;2.75;;;;;;;;5089978;27;51037;-41
2022/05/29 13:49:14;;;;;;;;;3.50;1.25;;;;;;;;5096661;27;51316;-42
2022/05/29 13:52:07;;;;;;;;;3.50;3.50;;;;;;;;5099508;27;51317;-44
2022/05/29 13:55:06;;;;;;;;;3.50;2.75;;;;;;;;5099534;27;51168;-44
2022/05/29 14:05:06;;;;;;;;;4.25;4.25;;;;;;;;5100269;27;51538;-45
2022/05/29 14:08:10;;;;;;;;;3.25;2.25;;;;;;;;5016657;28;51114;-44
2022/05/29 14:11:00;;;;;;;;;0.75;0.75;;;;;;;;5017039;28;51137;-46
2022/05/29 14:13:52;;;;;;;;;3.50;3.00;;;;;;;;5095421;27;51090;-44
2022/05/29 14:16:40;;;;;;;;;7.75;3.75;;;;;;;;5099739;27;51130;-45
2022/05/29 14:19:34;;;;;;;;;8.00;2.75;;;;;;;;5099834;27;51111;-50
2022/05/29 14:22:39;;;;;;;;;6.00;3.25;;;;;;;;5096688;27;51059;-44
2022/05/29 14:25:43;;;;;;;;;4.25;4.00;;;;;;;;5099879;27;51046;-43
2022/05/29 14:28:53;;;;;;;;;2.50;2.50;;;;;;;;5099294;27;51430;-46
2022/05/29 14:31:50;;;;;;;;;5.00;3.50;;;;;;;;5098636;27;51365;-44
2022/05/29 14:34:46;;;;;;;;;4.75;3.00;;;;;;;;5099280;27;51164;-42
2022/05/29 14:41:33;;;;;;;;;5.00;2.00;;;;;;;;5024886;27;51146;-45
2022/05/29 14:44:33;;;;;;;;;5.00;2.25;;;;;;;;5102076;27;51287;-43
2022/05/29 14:47:33;;;;;;;;;6.25;4.25;;;;;;;;5102809;27;51522;-46
2022/05/29 14:50:30;;;;;;;;;3.00;2.00;;;;;;;;5086876;27;51126;-42
2022/05/29 14:53:22;;;;;;;;;6.25;3.00;;;;;;;;5101741;27;51165;-47
2022/05/29 14:56:29;;;;;;;;;3.00;3.00;;;;;;;;5103239;27;51021;-47
2022/05/29 14:59:15;;;;;;;;;6.75;4.25;;;;;;;;5103347;27;51078;-41
2022/05/29 15:02:01;;;;;;;;;3.50;3.50;;;;;;;;5103101;27;51045;-47
2022/05/29 15:04:47;;;;;;;;;4.50;3.00;;;;;;;;5103282;27;51180;-44
2022/05/29 15:10:41;;;;;;;;;5.00;4.50;;;;;;;;5103123;27;51426;-44
2022/05/29 15:13:25;;;;;;;;;3.50;3.00;;;;;;;;5103341;27;51408;-43
2022/05/29 15:16:09;;;;;;;;;3.00;3.00;;;;;;;;5102723;27;51210;-42
2022/05/29 15:18:54;;;;;;;;;6.75;3.00;;;;;;;;5081295;27;51126;-44
2022/05/29 15:25:13;;;;;;;;;4.00;2.75;;;;;;;;5086249;27;51460;-46
2022/05/29 15:27:58;;;;;;;;;8.00;5.00;;;;;;;;5102796;27;51096;-42
2022/05/29 15:30:42;;;;;;;;;8.00;6.00;;;;;;;;5102846;27;50960;-42
2022/05/29 15:33:53;;;;;;;;;17.50;13.50;;;;;;;;5102215;27;51507;-44
2022/05/29 15:36:38;;;;;;;;;7.00;7.00;;;;;;;;5099010;27;51133;-43
2022/05/29 15:39:35;;;;;;;;;6.25;5.00;;;;;;;;5079819;27;52207;-45
2022/05/29 15:42:21;;;;;;;;;6.00;4.25;;;;;;;;5096598;27;51224;-45
2022/05/29 15:45:09;;;;;;;;;4.00;4.00;;;;;;;;5085193;27;51015;-44
2022/05/29 15:47:59;;;;;;;;;6.00;5.00;;;;;;;;5100870;27;51509;-42
2022/05/29 15:50:53;;;;;;;;;4.75;3.00;;;;;;;;5084458;27;51131;-42
2022/05/29 15:53:49;;;;;;;;;4.75;3.50;;;;;;;;5100948;27;51073;-42
2022/05/29 15:56:49;;;;;;;;;10.25;7.00;;;;;;;;5095697;27;51252;-42
2022/05/29 16:02:49;;;;;;;;;4.00;4.00;;;;;;;;5096606;27;51302;-42
2022/05/29 16:05:37;;;;;;;;;7.50;6.50;;;;;;;;5100764;27;51793;-43
2022/05/29 16:08:28;;;;;;;;;7.75;7.25;;;;;;;;5100556;27;51293;-46
2022/05/29 16:11:30;;;;;;;;;7.25;5.00;;;;;;;;5097428;27;51149;-45
2022/05/29 16:14:45;;;;;;;;;4.50;4.50;;;;;;;;5100303;27;51469;-43
2022/05/29 16:24:28;;;;;;;;;10.50;6.25;;;;;;;;4972603;28;51543;-44
2022/05/29 16:27:33;;;;;;;;;7.00;5.50;;;;;;;;5016931;28;51235;-45
2022/05/29 16:30:25;;;;;;;;;6.25;5.25;;;;;;;;5017109;28;51312;-43
2022/05/29 16:33:14;;;;;;;;;7.25;5.50;;;;;;;;5011231;28;52159;-44
2022/05/29 16:36:01;;;;;;;;;7.25;4.25;;;;;;;;5016586;28;51151;-46
2022/05/29 16:48:29;;;;;;;;;10.00;8.25;;;;;;;;5017512;28;51260;-42
2022/05/29 16:51:16;;;;;;;;;12.00;8.75;;;;;;;;5016706;28;51057;-47
2022/05/29 16:54:01;;;;;;;;;12.50;10.50;;;;;;;;5015985;28;52241;-45
2022/05/29 16:56:58;;;;;;;;;7.50;7.00;;;;;;;;5016145;28;51512;-42
2022/05/29 16:59:49;;;;;;;;;4.00;2.00;;;;;;;;5011067;28;51132;-44
2022/05/29 17:02:42;;;;;;;;;7.25;6.25;;;;;;;;5089539;27;51001;-43
2022/05/29 17:05:31;;;;;;;;;10.00;9.25;;;;;;;;5097194;27;51131;-45
2022/05/29 17:08:23;;;;;;;;;7.75;5.00;;;;;;;;5099604;27;51552;-43
2022/05/29 17:11:15;;;;;;;;;10.25;6.50;;;;;;;;5098330;27;51238;-44
2022/05/29 17:14:08;;;;;;;;;8.50;5.50;;;;;;;;5099999;27;51154;-44
2022/05/29 17:16:52;;;;;;;;;11.00;5.50;;;;;;;;5080890;27;51111;-47
2022/05/29 17:19:37;;;;;;;;;5.50;5.50;;;;;;;;5097112;27;51481;-43
2022/05/29 17:22:24;;;;;;;;;6.00;6.00;;;;;;;;5099570;27;51182;-44
2022/05/29 17:25:08;;;;;;;;;4.00;4.00;;;;;;;;5099928;27;51100;-42
2022/05/29 17:27:53;;;;;;;;;7.25;5.50;;;;;;;;5098882;27;51044;-41
2022/05/29 17:30:39;;;;;;;;;5.75;5.75;;;;;;;;5099944;27;51158;-43
2022/05/29 17:33:29;;;;;;;;;8.25;6.50;;;;;;;;5094198;27;51196;-39
2022/05/29 17:36:34;;;;;;;;;7.50;5.50;;;;;;;;5097319;27;51109;-41
2022/05/29 17:39:28;;;;;;;;;6.75;5.50;;;;;;;;5099101;27;51062;-40
2022/05/29 18:20:30;;;;;;;;;10.75;9.50;;;;;;;;4418042;31;51418;-43
2022/05/29 18:23:32;;;;;;;;;7.00;6.75;;;;;;;;4992531;28;51300;-43
2022/05/29 18:26:32;;;;;;;;;4.50;1.50;;;;;;;;4985265;28;51527;-43
2022/05/29 18:29:23;;;;;;;;;6.75;5.75;;;;;;;;5049071;28;51147;-43
2022/05/29 18:32:08;;;;;;;;;8.50;5.25;;;;;;;;5066187;28;51234;-44
2022/05/29 18:34:52;;;;;;;;;9.25;5.75;;;;;;;;5060887;28;51167;-42
2022/05/29 18:37:39;;;;;;;;;5.50;5.50;;;;;;;;5074422;28;51072;-43
2022/05/29 18:40:34;;;;;;;;;6.00;6.00;;;;;;;;5068825;28;51166;-42
2022/05/29 18:43:23;;;;;;;;;6.75;6.25;;;;;;;;5057965;28;51456;-43
2022/05/29 18:46:08;;;;;;;;;7.00;5.75;;;;;;;;5060319;28;51302;-43
2022/05/29 18:48:53;;;;;;;;;11.75;8.00;;;;;;;;5074520;28;51213;-43
2022/05/29 18:51:41;;;;;;;;;8.25;5.00;;;;;;;;5067389;28;51233;-43
2022/05/29 18:54:27;;;;;;;;;8.00;3.50;;;;;;;;5070558;28;51542;-43
2022/05/29 18:57:16;;;;;;;;;7.00;7.00;;;;;;;;5071204;28;51084;-43
2022/05/29 19:00:04;;;;;;;;;9.25;5.50;;;;;;;;5087603;27;51262;-43
2022/05/29 19:02:56;;;;;;;;;5.75;4.25;;;;;;;;5097273;27;51036;-43
2022/05/29 19:05:42;;;;;;;;;8.50;4.50;;;;;;;;5096722;27;51057;-44
2022/05/29 19:08:26;;;;;;;;;6.00;5.75;;;;;;;;5096718;27;51655;-43